sensor_id;sensor_type;location;lat;lon;timestamp;temperature;humidity
71839;SHT31;59687;37.520;15.068;2022-08-05T00:01:02;26.21;54.98
71839;SHT31;59687;37.520;15.068;2022-08-05T00:03:29;26.31;54.91
71839;SHT31;59687;37.520;15.068;2022-08-05T00:05:57;26.22;54.80
71839;SHT31;59687;37.520;15.068;2022-08-05T00:08:24;26.18;54.80
71839;SHT31;59687;37.520;15.068;2022-08-05T00:10:52;26.21;54.71
71839;SHT31;59687;37.520;15.068;2022-08-05T00:13:19;26.13;54.67
71839;SHT31;59687;37.520;15.068;2022-08-05T00:15:46;26.13;54.66
71839;SHT31;59687;37.520;15.068;2022-08-05T00:18:13;26.16;54.55
71839;SHT31;59687;37.520;15.068;2022-08-05T00:20:40;26.31;53.70
71839;SHT31;59687;37.520;15.068;2022-08-05T00:23:07;26.25;53.54
71839;SHT31;59687;37.520;15.068;2022-08-05T00:25:35;26.22;53.42
71839;SHT31;59687;37.520;15.068;2022-08-05T00:28:02;26.10;53.08
71839;SHT31;59687;37.520;15.068;2022-08-05T00:30:29;26.08;52.93
71839;SHT31;59687;37.520;15.068;2022-08-05T00:32:56;26.16;52.92
71839;SHT31;59687;37.520;15.068;2022-08-05T00:35:23;26.11;52.78
71839;SHT31;59687;37.520;15.068;2022-08-05T00:37:50;26.00;53.10
71839;SHT31;59687;37.520;15.068;2022-08-05T00:40:21;25.87;53.41
71839;SHT31;59687;37.520;15.068;2022-08-05T00:42:48;25.79;53.62
71839;SHT31;59687;37.520;15.068;2022-08-05T00:45:15;26.00;53.07
71839;SHT31;59687;37.520;15.068;2022-08-05T00:47:44;26.01;52.79
71839;SHT31;59687;37.520;15.068;2022-08-05T00:50:12;26.04;52.59
71839;SHT31;59687;37.520;15.068;2022-08-05T00:52:39;26.18;51.91
71839;SHT31;59687;37.520;15.068;2022-08-05T00:55:06;26.14;52.27
71839;SHT31;59687;37.520;15.068;2022-08-05T00:57:33;26.13;51.68
71839;SHT31;59687;37.520;15.068;2022-08-05T01:00:00;26.25;51.19
71839;SHT31;59687;37.520;15.068;2022-08-05T01:02:29;26.29;51.01
71839;SHT31;59687;37.520;15.068;2022-08-05T01:04:57;26.16;51.32
71839;SHT31;59687;37.520;15.068;2022-08-05T01:07:24;26.07;51.61
71839;SHT31;59687;37.520;15.068;2022-08-05T01:09:52;26.03;51.82
71839;SHT31;59687;37.520;15.068;2022-08-05T01:12:20;25.89;52.22
71839;SHT31;59687;37.520;15.068;2022-08-05T01:14:56;25.77;52.57
71839;SHT31;59687;37.520;15.068;2022-08-05T01:17:48;25.73;52.77
71839;SHT31;59687;37.520;15.068;2022-08-05T01:20:33;25.87;52.55
71839;SHT31;59687;37.520;15.068;2022-08-05T01:29:20;25.92;52.10
71839;SHT31;59687;37.520;15.068;2022-08-05T01:31:51;25.98;51.78
71839;SHT31;59687;37.520;15.068;2022-08-05T01:34:21;25.93;51.71
71839;SHT31;59687;37.520;15.068;2022-08-05T01:36:54;25.90;51.87
71839;SHT31;59687;37.520;15.068;2022-08-05T01:39:22;25.86;52.03
71839;SHT31;59687;37.520;15.068;2022-08-05T01:41:52;25.77;51.93
71839;SHT31;59687;37.520;15.068;2022-08-05T01:44:20;25.75;54.00
71839;SHT31;59687;37.520;15.068;2022-08-05T01:46:48;25.70;53.82
71839;SHT31;59687;37.520;15.068;2022-08-05T01:49:19;25.62;53.86
71839;SHT31;59687;37.520;15.068;2022-08-05T01:51:47;25.66;54.09
71839;SHT31;59687;37.520;15.068;2022-08-05T01:54:16;25.79;53.64
71839;SHT31;59687;37.520;15.068;2022-08-05T01:56:45;25.75;53.70
71839;SHT31;59687;37.520;15.068;2022-08-05T01:59:17;25.84;53.37
71839;SHT31;59687;37.520;15.068;2022-08-05T02:01:48;25.93;52.31
71839;SHT31;59687;37.520;15.068;2022-08-05T02:04:18;25.80;52.20
71839;SHT31;59687;37.520;15.068;2022-08-05T02:06:46;25.72;52.78
71839;SHT31;59687;37.520;15.068;2022-08-05T02:09:12;25.70;53.04
71839;SHT31;59687;37.520;15.068;2022-08-05T02:12:05;25.58;53.24
71839;SHT31;59687;37.520;15.068;2022-08-05T02:14:39;25.43;53.55
71839;SHT31;59687;37.520;15.068;2022-08-05T02:17:19;25.28;53.67
71839;SHT31;59687;37.520;15.068;2022-08-05T02:19:52;25.25;53.74
71839;SHT31;59687;37.520;15.068;2022-08-05T02:22:28;25.31;53.76
71839;SHT31;59687;37.520;15.068;2022-08-05T02:25:06;25.42;53.40
71839;SHT31;59687;37.520;15.068;2022-08-05T02:27:38;25.56;52.85
71839;SHT31;59687;37.520;15.068;2022-08-05T02:30:08;25.49;53.05
71839;SHT31;59687;37.520;15.068;2022-08-05T02:32:39;25.59;52.60
71839;SHT31;59687;37.520;15.068;2022-08-05T02:35:14;25.61;52.54
71839;SHT31;59687;37.520;15.068;2022-08-05T02:37:45;25.48;52.66
71839;SHT31;59687;37.520;15.068;2022-08-05T02:40:15;25.34;52.94
71839;SHT31;59687;37.520;15.068;2022-08-05T02:42:47;25.24;53.24
71839;SHT31;59687;37.520;15.068;2022-08-05T02:45:18;25.15;53.23
71839;SHT31;59687;37.520;15.068;2022-08-05T02:47:46;25.08;52.98
71839;SHT31;59687;37.520;15.068;2022-08-05T02:50:14;25.14;52.52
71839;SHT31;59687;37.520;15.068;2022-08-05T02:52:44;25.17;52.49
71839;SHT31;59687;37.520;15.068;2022-08-05T02:55:12;25.23;52.09
71839;SHT31;59687;37.520;15.068;2022-08-05T02:57:41;25.23;51.97
71839;SHT31;59687;37.520;15.068;2022-08-05T03:00:11;25.30;51.91
71839;SHT31;59687;37.520;15.068;2022-08-05T03:02:40;25.45;51.83
71839;SHT31;59687;37.520;15.068;2022-08-05T03:05:10;25.35;52.09
71839;SHT31;59687;37.520;15.068;2022-08-05T03:07:38;25.21;52.17
71839;SHT31;59687;37.520;15.068;2022-08-05T03:10:08;25.11;52.31
71839;SHT31;59687;37.520;15.068;2022-08-05T03:12:38;25.04;52.56
71839;SHT31;59687;37.520;15.068;2022-08-05T03:15:08;24.98;52.64
71839;SHT31;59687;37.520;15.068;2022-08-05T03:17:36;25.11;52.29
71839;SHT31;59687;37.520;15.068;2022-08-05T03:20:05;25.17;51.90
71839;SHT31;59687;37.520;15.068;2022-08-05T03:22:33;25.25;51.95
71839;SHT31;59687;37.520;15.068;2022-08-05T03:25:00;25.31;51.55
71839;SHT31;59687;37.520;15.068;2022-08-05T03:27:28;25.27;51.55
71839;SHT31;59687;37.520;15.068;2022-08-05T03:29:55;25.34;51.46
71839;SHT31;59687;37.520;15.068;2022-08-05T03:32:22;25.28;51.67
71839;SHT31;59687;37.520;15.068;2022-08-05T03:34:52;25.21;52.04
71839;SHT31;59687;37.520;15.068;2022-08-05T03:37:20;25.08;52.45
71839;SHT31;59687;37.520;15.068;2022-08-05T03:39:58;24.97;52.69
71839;SHT31;59687;37.520;15.068;2022-08-05T03:42:30;24.93;53.20
71839;SHT31;59687;37.520;15.068;2022-08-05T03:45:00;24.83;53.73
71839;SHT31;59687;37.520;15.068;2022-08-05T03:47:28;24.97;53.50
71839;SHT31;59687;37.520;15.068;2022-08-05T03:49:55;24.94;53.52
71839;SHT31;59687;37.520;15.068;2022-08-05T03:52:28;24.91;53.56
71839;SHT31;59687;37.520;15.068;2022-08-05T03:55:00;24.96;53.47
71839;SHT31;59687;37.520;15.068;2022-08-05T03:57:30;25.00;53.27
71839;SHT31;59687;37.520;15.068;2022-08-05T04:00:06;24.90;53.29
71839;SHT31;59687;37.520;15.068;2022-08-05T04:02:43;24.83;53.28
71839;SHT31;59687;37.520;15.068;2022-08-05T04:05:11;24.75;53.64
71839;SHT31;59687;37.520;15.068;2022-08-05T04:07:39;24.72;53.78
71839;SHT31;59687;37.520;15.068;2022-08-05T04:10:13;24.82;53.73
71839;SHT31;59687;37.520;15.068;2022-08-05T04:12:40;24.94;53.55
71839;SHT31;59687;37.520;15.068;2022-08-05T04:15:06;25.02;53.41
71839;SHT31;59687;37.520;15.068;2022-08-05T04:17:34;25.08;53.36
71839;SHT31;59687;37.520;15.068;2022-08-05T04:20:02;25.17;53.06
71839;SHT31;59687;37.520;15.068;2022-08-05T04:22:31;25.18;53.13
71839;SHT31;59687;37.520;15.068;2022-08-05T04:24:59;25.08;53.31
71839;SHT31;59687;37.520;15.068;2022-08-05T04:27:28;25.02;53.63
71839;SHT31;59687;37.520;15.068;2022-08-05T04:29:57;24.98;53.86
71839;SHT31;59687;37.520;15.068;2022-08-05T04:32:24;24.98;54.13
71839;SHT31;59687;37.520;15.068;2022-08-05T04:34:51;25.14;53.98
71839;SHT31;59687;37.520;15.068;2022-08-05T04:37:18;25.18;53.90
71839;SHT31;59687;37.520;15.068;2022-08-05T04:39:48;25.23;53.92
71839;SHT31;59687;37.520;15.068;2022-08-05T04:42:19;25.30;54.04
71839;SHT31;59687;37.520;15.068;2022-08-05T04:44:46;25.67;53.14
71839;SHT31;59687;37.520;15.068;2022-08-05T04:47:13;25.96;52.57
71839;SHT31;59687;37.520;15.068;2022-08-05T04:49:42;26.18;52.16
71839;SHT31;59687;37.520;15.068;2022-08-05T04:52:09;26.57;50.92
71839;SHT31;59687;37.520;15.068;2022-08-05T04:54:37;26.97;50.10
71839;SHT31;59687;37.520;15.068;2022-08-05T04:57:06;27.38;48.62
71839;SHT31;59687;37.520;15.068;2022-08-05T04:59:35;27.65;48.05
71839;SHT31;59687;37.520;15.068;2022-08-05T05:02:03;27.92;47.70
71839;SHT31;59687;37.520;15.068;2022-08-05T05:04:30;28.10;47.57
71839;SHT31;59687;37.520;15.068;2022-08-05T05:07:00;28.19;47.15
71839;SHT31;59687;37.520;15.068;2022-08-05T05:09:27;28.38;46.84
71839;SHT31;59687;37.520;15.068;2022-08-05T05:11:55;28.69;46.03
71839;SHT31;59687;37.520;15.068;2022-08-05T05:14:32;29.06;45.24
71839;SHT31;59687;37.520;15.068;2022-08-05T05:16:59;29.45;44.17
71839;SHT31;59687;37.520;15.068;2022-08-05T05:19:27;29.73;43.17
71839;SHT31;59687;37.520;15.068;2022-08-05T05:21:56;29.84;43.05
71839;SHT31;59687;37.520;15.068;2022-08-05T05:24:24;29.88;43.54
71839;SHT31;59687;37.520;15.068;2022-08-05T05:27:15;29.86;43.72
71839;SHT31;59687;37.520;15.068;2022-08-05T05:29:43;30.05;43.86
71839;SHT31;59687;37.520;15.068;2022-08-05T05:32:10;30.10;44.61
71839;SHT31;59687;37.520;15.068;2022-08-05T05:34:38;30.32;44.69
71839;SHT31;59687;37.520;15.068;2022-08-05T05:37:06;30.77;44.69
71839;SHT31;59687;37.520;15.068;2022-08-05T05:39:33;31.26;43.58
71839;SHT31;59687;37.520;15.068;2022-08-05T05:42:00;31.54;45.64
71839;SHT31;59687;37.520;15.068;2022-08-05T05:44:26;31.58;47.23
71839;SHT31;59687;37.520;15.068;2022-08-05T05:46:53;31.43;46.83
71839;SHT31;59687;37.520;15.068;2022-08-05T05:49:21;31.21;47.17
71839;SHT31;59687;37.520;15.068;2022-08-05T05:51:48;31.52;46.80
71839;SHT31;59687;37.520;15.068;2022-08-05T05:54:18;31.50;46.48
71839;SHT31;59687;37.520;15.068;2022-08-05T05:56:48;31.38;47.32
71839;SHT31;59687;37.520;15.068;2022-08-05T05:59:18;31.07;45.68
71839;SHT31;59687;37.520;15.068;2022-08-05T06:01:47;31.15;45.61
71839;SHT31;59687;37.520;15.068;2022-08-05T06:04:14;31.29;45.44
71839;SHT31;59687;37.520;15.068;2022-08-05T06:06:43;31.69;44.99
71839;SHT31;59687;37.520;15.068;2022-08-05T06:09:12;31.70;44.65
71839;SHT31;59687;37.520;15.068;2022-08-05T06:11:40;32.07;43.61
71839;SHT31;59687;37.520;15.068;2022-08-05T06:14:08;32.74;43.08
71839;SHT31;59687;37.520;15.068;2022-08-05T06:16:35;33.07;42.13
71839;SHT31;59687;37.520;15.068;2022-08-05T06:19:06;33.53;40.65
71839;SHT31;59687;37.520;15.068;2022-08-05T06:21:35;33.84;40.29
71839;SHT31;59687;37.520;15.068;2022-08-05T06:24:07;34.12;39.75
71839;SHT31;59687;37.520;15.068;2022-08-05T06:26:34;34.66;38.65
71839;SHT31;59687;37.520;15.068;2022-08-05T06:29:01;34.97;37.70
71839;SHT31;59687;37.520;15.068;2022-08-05T06:31:28;35.08;37.36
71839;SHT31;59687;37.520;15.068;2022-08-05T06:33:55;34.70;37.97
71839;SHT31;59687;37.520;15.068;2022-08-05T06:36:24;35.24;37.83
71839;SHT31;59687;37.520;15.068;2022-08-05T06:38:52;35.49;37.28
71839;SHT31;59687;37.520;15.068;2022-08-05T06:41:23;35.76;37.35
71839;SHT31;59687;37.520;15.068;2022-08-05T06:43:53;35.96;36.99
71839;SHT31;59687;37.520;15.068;2022-08-05T06:46:20;36.21;36.52
71839;SHT31;59687;37.520;15.068;2022-08-05T06:48:47;35.90;36.58
71839;SHT31;59687;37.520;15.068;2022-08-05T06:51:15;36.23;35.72
71839;SHT31;59687;37.520;15.068;2022-08-05T06:53:42;36.55;34.86
71839;SHT31;59687;37.520;15.068;2022-08-05T06:56:09;36.51;35.14
71839;SHT31;59687;37.520;15.068;2022-08-05T06:58:36;36.70;34.66
71839;SHT31;59687;37.520;15.068;2022-08-05T07:01:05;36.79;34.58
71839;SHT31;59687;37.520;15.068;2022-08-05T07:03:33;36.79;34.35
71839;SHT31;59687;37.520;15.068;2022-08-05T07:06:02;36.87;34.12
71839;SHT31;59687;37.520;15.068;2022-08-05T07:08:30;37.01;33.79
71839;SHT31;59687;37.520;15.068;2022-08-05T07:10:59;36.91;33.67
71839;SHT31;59687;37.520;15.068;2022-08-05T07:13:26;36.75;34.34
71839;SHT31;59687;37.520;15.068;2022-08-05T07:16:12;36.56;34.41
71839;SHT31;59687;37.520;15.068;2022-08-05T07:18:58;36.48;34.18
71839;SHT31;59687;37.520;15.068;2022-08-05T07:21:25;36.24;35.00
71839;SHT31;59687;37.520;15.068;2022-08-05T07:23:52;36.32;34.35
71839;SHT31;59687;37.520;15.068;2022-08-05T07:26:20;36.49;34.12
71839;SHT31;59687;37.520;15.068;2022-08-05T07:28:49;36.45;34.55
71839;SHT31;59687;37.520;15.068;2022-08-05T07:31:17;36.51;34.21
71839;SHT31;59687;37.520;15.068;2022-08-05T07:33:44;36.90;33.85
71839;SHT31;59687;37.520;15.068;2022-08-05T07:36:11;37.00;33.52
71839;SHT31;59687;37.520;15.068;2022-08-05T07:38:40;37.39;32.55
71839;SHT31;59687;37.520;15.068;2022-08-05T07:41:16;37.42;32.59
71839;SHT31;59687;37.520;15.068;2022-08-05T07:43:44;37.46;33.02
71839;SHT31;59687;37.520;15.068;2022-08-05T07:46:11;37.59;32.57
71839;SHT31;59687;37.520;15.068;2022-08-05T07:48:38;37.84;32.15
71839;SHT31;59687;37.520;15.068;2022-08-05T07:51:06;38.21;31.48
71839;SHT31;59687;37.520;15.068;2022-08-05T07:53:33;38.27;31.26
71839;SHT31;59687;37.520;15.068;2022-08-05T07:56:03;38.59;31.27
71839;SHT31;59687;37.520;15.068;2022-08-05T07:58:32;38.90;30.87
71839;SHT31;59687;37.520;15.068;2022-08-05T08:00:59;38.82;31.83
71839;SHT31;59687;37.520;15.068;2022-08-05T08:03:26;38.27;31.35
71839;SHT31;59687;37.520;15.068;2022-08-05T08:05:54;38.16;33.44
71839;SHT31;59687;37.520;15.068;2022-08-05T08:08:21;37.93;34.36
71839;SHT31;59687;37.520;15.068;2022-08-05T08:10:51;37.84;33.92
71839;SHT31;59687;37.520;15.068;2022-08-05T08:13:22;37.06;34.83
71839;SHT31;59687;37.520;15.068;2022-08-05T08:15:50;37.06;35.34
71839;SHT31;59687;37.520;15.068;2022-08-05T08:18:17;36.76;35.34
71839;SHT31;59687;37.520;15.068;2022-08-05T08:20:44;36.55;35.38
71839;SHT31;59687;37.520;15.068;2022-08-05T08:23:12;37.08;35.14
71839;SHT31;59687;37.520;15.068;2022-08-05T08:25:42;37.66;34.02
71839;SHT31;59687;37.520;15.068;2022-08-05T08:28:10;37.49;35.03
71839;SHT31;59687;37.520;15.068;2022-08-05T08:30:37;38.01;34.13
71839;SHT31;59687;37.520;15.068;2022-08-05T08:33:08;37.97;34.95
71839;SHT31;59687;37.520;15.068;2022-08-05T08:35:38;38.25;34.23
71839;SHT31;59687;37.520;15.068;2022-08-05T08:38:05;37.99;34.78
71839;SHT31;59687;37.520;15.068;2022-08-05T08:40:33;38.24;35.67
71839;SHT31;59687;37.520;15.068;2022-08-05T08:43:01;38.07;34.86
71839;SHT31;59687;37.520;15.068;2022-08-05T08:45:29;38.34;33.78
71839;SHT31;59687;37.520;15.068;2022-08-05T08:48:00;38.99;34.47
71839;SHT31;59687;37.520;15.068;2022-08-05T08:50:31;39.22;33.67
71839;SHT31;59687;37.520;15.068;2022-08-05T08:53:06;38.79;35.16
71839;SHT31;59687;37.520;15.068;2022-08-05T08:55:37;38.73;35.19
71839;SHT31;59687;37.520;15.068;2022-08-05T08:58:05;39.02;35.37
71839;SHT31;59687;37.520;15.068;2022-08-05T09:00:35;38.56;35.58
71839;SHT31;59687;37.520;15.068;2022-08-05T09:03:04;38.51;35.00
71839;SHT31;59687;37.520;15.068;2022-08-05T09:05:34;38.56;35.38
71839;SHT31;59687;37.520;15.068;2022-08-05T09:08:03;38.92;34.72
71839;SHT31;59687;37.520;15.068;2022-08-05T09:10:32;38.92;35.23
71839;SHT31;59687;37.520;15.068;2022-08-05T09:12:59;38.97;34.76
71839;SHT31;59687;37.520;15.068;2022-08-05T09:15:27;38.99;36.97
71839;SHT31;59687;37.520;15.068;2022-08-05T09:17:59;38.38;34.76
71839;SHT31;59687;37.520;15.068;2022-08-05T09:20:27;37.74;38.56
71839;SHT31;59687;37.520;15.068;2022-08-05T09:25:33;37.17;39.18
71839;SHT31;59687;37.520;15.068;2022-08-05T09:30:55;36.55;38.54
71839;SHT31;59687;37.520;15.068;2022-08-05T09:33:24;36.29;39.79
71839;SHT31;59687;37.520;15.068;2022-08-05T09:36:00;35.73;39.19
71839;SHT31;59687;37.520;15.068;2022-08-05T09:38:36;35.19;41.63
71839;SHT31;59687;37.520;15.068;2022-08-05T09:41:07;34.45;43.33
71839;SHT31;59687;37.520;15.068;2022-08-05T09:43:37;34.76;44.27
71839;SHT31;59687;37.520;15.068;2022-08-05T09:46:05;35.41;42.18
71839;SHT31;59687;37.520;15.068;2022-08-05T09:48:37;35.59;40.49
71839;SHT31;59687;37.520;15.068;2022-08-05T09:51:07;35.38;43.06
71839;SHT31;59687;37.520;15.068;2022-08-05T09:53:52;35.07;41.81
71839;SHT31;59687;37.520;15.068;2022-08-05T09:56:28;35.10;43.06
71839;SHT31;59687;37.520;15.068;2022-08-05T09:58:59;35.13;40.06
71839;SHT31;59687;37.520;15.068;2022-08-05T10:01:28;35.15;42.34
71839;SHT31;59687;37.520;15.068;2022-08-05T10:03:57;34.96;42.31
71839;SHT31;59687;37.520;15.068;2022-08-05T10:06:26;35.17;40.40
71839;SHT31;59687;37.520;15.068;2022-08-05T10:09:17;35.19;39.62
71839;SHT31;59687;37.520;15.068;2022-08-05T10:11:46;35.10;39.07
71839;SHT31;59687;37.520;15.068;2022-08-05T10:14:28;34.82;41.90
71839;SHT31;59687;37.520;15.068;2022-08-05T10:17:12;34.80;42.64
71839;SHT31;59687;37.520;15.068;2022-08-05T10:19:43;34.91;42.81
71839;SHT31;59687;37.520;15.068;2022-08-05T10:22:10;35.17;38.10
71839;SHT31;59687;37.520;15.068;2022-08-05T10:24:37;35.34;40.67
71839;SHT31;59687;37.520;15.068;2022-08-05T10:27:04;35.17;42.19
71839;SHT31;59687;37.520;15.068;2022-08-05T10:29:31;35.28;40.47
71839;SHT31;59687;37.520;15.068;2022-08-05T10:32:02;34.97;40.77
71839;SHT31;59687;37.520;15.068;2022-08-05T10:34:31;35.05;40.96
71839;SHT31;59687;37.520;15.068;2022-08-05T10:36:59;35.38;39.58
71839;SHT31;59687;37.520;15.068;2022-08-05T10:39:32;35.66;35.97
71839;SHT31;59687;37.520;15.068;2022-08-05T10:42:11;35.18;39.50
71839;SHT31;59687;37.520;15.068;2022-08-05T10:44:44;34.88;35.43
71839;SHT31;59687;37.520;15.068;2022-08-05T10:47:16;35.32;38.78
71839;SHT31;59687;37.520;15.068;2022-08-05T10:50:07;35.53;36.86
71839;SHT31;59687;37.520;15.068;2022-08-05T10:52:49;35.66;37.68
71839;SHT31;59687;37.520;15.068;2022-08-05T10:55:29;35.65;36.69
71839;SHT31;59687;37.520;15.068;2022-08-05T10:58:08;35.65;38.54
71839;SHT31;59687;37.520;15.068;2022-08-05T11:00:35;35.87;34.84
71839;SHT31;59687;37.520;15.068;2022-08-05T11:03:09;36.21;38.49
71839;SHT31;59687;37.520;15.068;2022-08-05T11:05:39;36.39;35.62
71839;SHT31;59687;37.520;15.068;2022-08-05T11:08:09;36.04;37.36
71839;SHT31;59687;37.520;15.068;2022-08-05T11:10:47;35.45;33.40
71839;SHT31;59687;37.520;15.068;2022-08-05T11:13:38;35.58;37.27
71839;SHT31;59687;37.520;15.068;2022-08-05T11:16:21;35.77;37.05
71839;SHT31;59687;37.520;15.068;2022-08-05T11:22:46;35.14;38.50
71839;SHT31;59687;37.520;15.068;2022-08-05T11:25:34;34.28;38.27
71839;SHT31;59687;37.520;15.068;2022-08-05T11:33:37;33.42;39.60
71839;SHT31;59687;37.520;15.068;2022-08-05T11:36:07;33.43;38.75
71839;SHT31;59687;37.520;15.068;2022-08-05T11:41:28;33.59;38.70
71839;SHT31;59687;37.520;15.068;2022-08-05T11:44:02;33.94;37.61
71839;SHT31;59687;37.520;15.068;2022-08-05T11:49:20;34.46;38.37
71839;SHT31;59687;37.520;15.068;2022-08-05T11:51:51;34.63;34.93
71839;SHT31;59687;37.520;15.068;2022-08-05T11:54:29;34.93;36.03
71839;SHT31;59687;37.520;15.068;2022-08-05T11:57:03;34.53;38.07
71839;SHT31;59687;37.520;15.068;2022-08-05T11:59:31;34.49;38.67
71839;SHT31;59687;37.520;15.068;2022-08-05T12:02:04;34.59;37.88
71839;SHT31;59687;37.520;15.068;2022-08-05T12:04:46;34.73;36.39
71839;SHT31;59687;37.520;15.068;2022-08-05T12:07:16;34.93;37.02
71839;SHT31;59687;37.520;15.068;2022-08-05T12:09:48;35.11;38.07
71839;SHT31;59687;37.520;15.068;2022-08-05T12:12:24;34.83;37.20
71839;SHT31;59687;37.520;15.068;2022-08-05T12:14:51;34.74;35.84
71839;SHT31;59687;37.520;15.068;2022-08-05T12:17:22;34.79;40.20
71839;SHT31;59687;37.520;15.068;2022-08-05T12:19:52;34.96;39.91
71839;SHT31;59687;37.520;15.068;2022-08-05T12:22:29;35.05;39.45
71839;SHT31;59687;37.520;15.068;2022-08-05T12:24:56;35.21;37.26
71839;SHT31;59687;37.520;15.068;2022-08-05T12:27:26;34.93;35.46
71839;SHT31;59687;37.520;15.068;2022-08-05T12:30:07;34.56;38.25
71839;SHT31;59687;37.520;15.068;2022-08-05T12:32:46;34.10;37.85
71839;SHT31;59687;37.520;15.068;2022-08-05T12:35:16;33.50;39.79
71839;SHT31;59687;37.520;15.068;2022-08-05T12:37:46;33.07;40.83
71839;SHT31;59687;37.520;15.068;2022-08-05T12:40:15;32.79;41.63
71839;SHT31;59687;37.520;15.068;2022-08-05T12:42:47;32.59;46.02
71839;SHT31;59687;37.520;15.068;2022-08-05T12:45:14;32.67;45.26
71839;SHT31;59687;37.520;15.068;2022-08-05T12:47:41;32.63;43.63
71839;SHT31;59687;37.520;15.068;2022-08-05T12:50:17;32.28;44.54
71839;SHT31;59687;37.520;15.068;2022-08-05T12:52:57;32.18;42.51
71839;SHT31;59687;37.520;15.068;2022-08-05T12:55:29;32.14;44.86
71839;SHT31;59687;37.520;15.068;2022-08-05T12:57:58;32.11;45.51
71839;SHT31;59687;37.520;15.068;2022-08-05T13:00:27;32.31;45.40
71839;SHT31;59687;37.520;15.068;2022-08-05T13:02:56;32.62;42.08
71839;SHT31;59687;37.520;15.068;2022-08-05T13:05:24;32.84;40.77
71839;SHT31;59687;37.520;15.068;2022-08-05T13:07:56;32.98;42.05
71839;SHT31;59687;37.520;15.068;2022-08-05T13:10:23;33.19;43.09
71839;SHT31;59687;37.520;15.068;2022-08-05T13:12:51;33.59;42.76
71839;SHT31;59687;37.520;15.068;2022-08-05T13:15:18;33.35;39.04
71839;SHT31;59687;37.520;15.068;2022-08-05T13:17:53;33.12;40.50
71839;SHT31;59687;37.520;15.068;2022-08-05T13:20:33;33.38;39.55
71839;SHT31;59687;37.520;15.068;2022-08-05T13:23:01;33.53;39.64
71839;SHT31;59687;37.520;15.068;2022-08-05T13:25:28;33.17;38.05
71839;SHT31;59687;37.520;15.068;2022-08-05T13:27:56;33.07;40.01
71839;SHT31;59687;37.520;15.068;2022-08-05T13:30:23;32.86;40.19
71839;SHT31;59687;37.520;15.068;2022-08-05T13:32:52;32.69;41.05
71839;SHT31;59687;37.520;15.068;2022-08-05T13:35:20;32.62;43.10
71839;SHT31;59687;37.520;15.068;2022-08-05T13:37:50;32.67;45.29
71839;SHT31;59687;37.520;15.068;2022-08-05T13:40:18;32.72;45.24
71839;SHT31;59687;37.520;15.068;2022-08-05T13:42:47;32.62;44.02
71839;SHT31;59687;37.520;15.068;2022-08-05T13:45:15;32.49;45.17
71839;SHT31;59687;37.520;15.068;2022-08-05T13:47:47;32.52;45.03
71839;SHT31;59687;37.520;15.068;2022-08-05T13:50:15;32.57;45.20
71839;SHT31;59687;37.520;15.068;2022-08-05T13:52:44;32.62;45.75
71839;SHT31;59687;37.520;15.068;2022-08-05T13:55:14;32.48;46.45
71839;SHT31;59687;37.520;15.068;2022-08-05T13:57:41;32.45;46.60
71839;SHT31;59687;37.520;15.068;2022-08-05T14:00:08;32.29;46.67
71839;SHT31;59687;37.520;15.068;2022-08-05T14:02:35;32.33;46.18
71839;SHT31;59687;37.520;15.068;2022-08-05T14:05:05;32.22;46.44
71839;SHT31;59687;37.520;15.068;2022-08-05T14:07:42;32.07;48.68
71839;SHT31;59687;37.520;15.068;2022-08-05T14:10:30;31.81;47.69
71839;SHT31;59687;37.520;15.068;2022-08-05T14:12:58;31.87;46.90
71839;SHT31;59687;37.520;15.068;2022-08-05T14:15:28;31.88;44.72
71839;SHT31;59687;37.520;15.068;2022-08-05T14:17:56;31.90;45.18
71839;SHT31;59687;37.520;15.068;2022-08-05T14:20:22;31.87;46.44
71839;SHT31;59687;37.520;15.068;2022-08-05T14:22:50;31.81;45.68
71839;SHT31;59687;37.520;15.068;2022-08-05T14:25:17;31.70;45.80
71839;SHT31;59687;37.520;15.068;2022-08-05T14:27:48;31.60;45.82
71839;SHT31;59687;37.520;15.068;2022-08-05T14:30:17;31.72;45.14
71839;SHT31;59687;37.520;15.068;2022-08-05T14:32:44;31.53;44.68
71839;SHT31;59687;37.520;15.068;2022-08-05T14:35:11;31.46;44.13
71839;SHT31;59687;37.520;15.068;2022-08-05T14:37:38;31.39;44.29
71839;SHT31;59687;37.520;15.068;2022-08-05T14:40:06;31.41;44.17
71839;SHT31;59687;37.520;15.068;2022-08-05T14:42:35;31.45;44.63
71839;SHT31;59687;37.520;15.068;2022-08-05T14:45:02;31.46;44.54
71839;SHT31;59687;37.520;15.068;2022-08-05T14:47:30;31.52;44.85
71839;SHT31;59687;37.520;15.068;2022-08-05T14:49:58;31.42;44.92
71839;SHT31;59687;37.520;15.068;2022-08-05T14:52:32;31.36;44.90
71839;SHT31;59687;37.520;15.068;2022-08-05T14:55:15;31.36;44.66
71839;SHT31;59687;37.520;15.068;2022-08-05T14:57:42;31.29;44.94
71839;SHT31;59687;37.520;15.068;2022-08-05T15:00:10;31.18;44.11
71839;SHT31;59687;37.520;15.068;2022-08-05T15:02:37;31.10;45.45
71839;SHT31;59687;37.520;15.068;2022-08-05T15:05:04;30.94;49.73
71839;SHT31;59687;37.520;15.068;2022-08-05T15:07:31;30.79;53.34
71839;SHT31;59687;37.520;15.068;2022-08-05T15:09:59;30.62;54.96
71839;SHT31;59687;37.520;15.068;2022-08-05T15:12:31;30.59;58.19
71839;SHT31;59687;37.520;15.068;2022-08-05T15:15:07;30.45;59.06
71839;SHT31;59687;37.520;15.068;2022-08-05T15:17:35;30.32;61.31
71839;SHT31;59687;37.520;15.068;2022-08-05T15:20:03;30.42;63.01
71839;SHT31;59687;37.520;15.068;2022-08-05T15:22:30;30.35;62.46
71839;SHT31;59687;37.520;15.068;2022-08-05T15:24:57;30.35;62.00
71839;SHT31;59687;37.520;15.068;2022-08-05T15:27:25;30.39;61.68
71839;SHT31;59687;37.520;15.068;2022-08-05T15:29:52;30.51;61.26
71839;SHT31;59687;37.520;15.068;2022-08-05T15:32:21;30.53;60.36
71839;SHT31;59687;37.520;15.068;2022-08-05T15:34:48;30.55;59.20
71839;SHT31;59687;37.520;15.068;2022-08-05T15:37:15;30.52;59.30
71839;SHT31;59687;37.520;15.068;2022-08-05T15:39:43;30.52;57.80
71839;SHT31;59687;37.520;15.068;2022-08-05T15:42:10;30.60;56.78
71839;SHT31;59687;37.520;15.068;2022-08-05T15:44:39;30.62;56.87
71839;SHT31;59687;37.520;15.068;2022-08-05T15:47:10;30.66;54.92
71839;SHT31;59687;37.520;15.068;2022-08-05T15:49:39;30.66;54.76
71839;SHT31;59687;37.520;15.068;2022-08-05T15:52:09;30.66;54.17
71839;SHT31;59687;37.520;15.068;2022-08-05T15:54:37;30.67;54.15
71839;SHT31;59687;37.520;15.068;2022-08-05T15:57:04;30.59;53.66
71839;SHT31;59687;37.520;15.068;2022-08-05T15:59:31;30.63;52.18